Time;durP1;ratioP1;P1;durP2;ratioP2;P2;SDS_P1;SDS_P2;PMS_P1;PMS_P2;Temp;Humidity;BMP_temperature;BMP_pressure;BME280_temperature;BME280_humidity;BME280_pressure;Samples;Min_cycle;Max_cycle;Signal;HPM_P1;HPM_P2
2022/06/17 00:02:05;;;;;;;0.00;0.00;;;16.90;72.10;;;;;;5029209;28;20120;-68
2022/06/17 00:04:31;;;;;;;0.00;0.00;;;16.90;73.00;;;;;;5035448;28;20048;-69
2022/06/17 00:07:03;;;;;;;0.00;0.00;;;16.90;72.80;;;;;;5028784;28;20037;-69
2022/06/17 00:09:31;;;;;;;0.00;0.00;;;16.90;72.70;;;;;;5029040;28;20037;-69
2022/06/17 00:11:57;;;;;;;0.00;0.00;;;16.80;72.70;;;;;;5029262;28;20159;-69
2022/06/17 00:14:31;;;;;;;0.00;0.00;;;16.80;72.90;;;;;;5028173;28;20128;-69
2022/06/17 00:17:03;;;;;;;0.00;0.00;;;16.80;73.10;;;;;;5027788;28;20090;-69
2022/06/17 00:19:29;;;;;;;0.00;0.00;;;16.80;72.90;;;;;;5029080;28;20045;-69
2022/06/17 00:21:55;;;;;;;0.00;0.00;;;16.80;72.80;;;;;;5029127;28;20038;-69
2022/06/17 00:24:25;;;;;;;0.00;0.00;;;16.70;72.80;;;;;;5028958;28;20053;-69
2022/06/17 00:26:53;;;;;;;0.00;0.00;;;16.70;73.00;;;;;;5029668;28;20405;-69
2022/06/17 00:29:22;;;;;;;0.00;0.00;;;16.70;73.10;;;;;;5032810;28;20045;-69
2022/06/17 00:31:48;;;;;;;0.00;0.00;;;16.70;73.00;;;;;;5029529;28;20123;-69
2022/06/17 00:34:14;;;;;;;0.00;0.00;;;16.70;73.20;;;;;;5027623;28;20482;-69
2022/06/17 00:36:41;;;;;;;0.00;0.00;;;16.70;72.90;;;;;;5028860;28;20045;-69
2022/06/17 00:39:23;;;;;;;0.00;0.00;;;16.60;72.80;;;;;;5028778;28;20080;-71
2022/06/17 00:41:52;;;;;;;0.73;0.63;;;16.60;73.00;;;;;;5016661;28;20079;-69
2022/06/17 00:44:36;;;;;;;0.10;0.10;;;16.60;72.90;;;;;;5028558;28;20077;-69
2022/06/17 00:47:07;;;;;;;0.00;0.00;;;16.60;72.90;;;;;;5037476;28;20041;-69
2022/06/17 00:49:46;;;;;;;0.00;0.00;;;16.60;73.10;;;;;;5032718;28;20081;-69
2022/06/17 00:52:21;;;;;;;0.00;0.00;;;16.50;73.40;;;;;;5028862;28;20041;-69
2022/06/17 00:54:57;;;;;;;0.00;0.00;;;16.50;73.20;;;;;;5028700;28;20099;-69
2022/06/17 00:57:32;;;;;;;0.00;0.00;;;16.60;73.40;;;;;;5028899;28;20042;-69
2022/06/17 01:00:10;;;;;;;0.00;0.00;;;16.50;73.60;;;;;;5034111;28;20047;-69
2022/06/17 01:02:41;;;;;;;0.00;0.00;;;16.50;73.30;;;;;;5028516;28;20055;-68
2022/06/17 01:05:09;;;;;;;0.00;0.00;;;16.50;73.20;;;;;;5028082;28;20117;-69
2022/06/17 01:08:14;;;;;;;0.00;0.00;;;16.50;73.30;;;;;;5029828;28;20057;-69
2022/06/17 01:10:46;;;;;;;0.00;0.00;;;16.40;73.40;;;;;;5017085;28;20058;-69
2022/06/17 01:13:12;;;;;;;0.10;0.10;;;16.40;73.40;;;;;;5032090;28;20120;-69
2022/06/17 01:15:41;;;;;;;0.00;0.00;;;16.40;73.30;;;;;;5036680;28;20103;-69
2022/06/17 01:18:07;;;;;;;0.10;0.10;;;16.40;73.50;;;;;;5031894;28;20045;-69
2022/06/17 01:20:34;;;;;;;0.00;0.00;;;16.30;73.50;;;;;;5032307;28;20057;-69
2022/06/17 01:23:07;;;;;;;0.00;0.00;;;16.30;73.50;;;;;;5038375;28;20810;-69
2022/06/17 01:25:37;;;;;;;0.00;0.00;;;16.30;73.50;;;;;;5045663;28;20037;-69
2022/06/17 01:28:09;;;;;;;0.00;0.00;;;16.30;73.90;;;;;;5041768;28;20079;-69
2022/06/17 01:30:36;;;;;;;0.00;0.00;;;16.20;73.60;;;;;;5032724;28;20041;-68
2022/06/17 01:33:08;;;;;;;0.00;0.00;;;16.20;73.60;;;;;;5015169;28;20081;-69
2022/06/17 01:35:57;;;;;;;0.00;0.00;;;16.20;73.80;;;;;;5021071;28;20049;-69
2022/06/17 01:38:23;;;;;;;0.00;0.00;;;16.10;74.00;;;;;;5033286;28;20158;-69
2022/06/17 01:40:52;;;;;;;0.00;0.00;;;16.20;74.00;;;;;;5031820;28;20045;-69
2022/06/17 01:43:19;;;;;;;0.00;0.00;;;16.20;73.70;;;;;;5031922;28;20041;-69
2022/06/17 01:45:54;;;;;;;0.00;0.00;;;16.10;73.80;;;;;;5031441;28;20084;-69
2022/06/17 01:48:24;;;;;;;0.15;0.15;;;16.10;74.00;;;;;;5031763;28;20060;-69
2022/06/17 01:50:51;;;;;;;0.00;0.00;;;16.10;74.00;;;;;;5031683;28;20041;-69
2022/06/17 01:53:23;;;;;;;0.00;0.00;;;16.10;73.80;;;;;;5035932;28;20041;-69
2022/06/17 01:55:56;;;;;;;0.00;0.00;;;16.10;73.60;;;;;;5032621;28;20060;-69
2022/06/17 01:58:37;;;;;;;0.00;0.00;;;16.10;73.90;;;;;;5031989;28;20788;-69
2022/06/17 02:01:06;;;;;;;0.00;0.00;;;16.10;73.80;;;;;;5030860;28;20552;-69
2022/06/17 02:03:41;;;;;;;0.10;0.10;;;16.10;73.60;;;;;;5032468;28;20048;-69
2022/06/17 02:06:12;;;;;;;0.17;0.17;;;16.10;73.90;;;;;;5031317;28;20132;-69
2022/06/17 02:08:38;;;;;;;0.00;0.00;;;16.10;73.80;;;;;;5031586;28;20128;-69
2022/06/17 02:11:05;;;;;;;0.00;0.00;;;16.10;74.20;;;;;;5030783;28;20112;-68
2022/06/17 02:13:32;;;;;;;0.00;0.00;;;16.10;74.10;;;;;;5031581;28;20084;-69
2022/06/17 02:16:03;;;;;;;0.00;0.00;;;16.00;74.20;;;;;;5030751;28;20383;-69
2022/06/17 02:18:30;;;;;;;0.00;0.00;;;16.00;74.10;;;;;;5032158;28;20044;-69
2022/06/17 02:21:01;;;;;;;0.47;0.47;;;16.00;73.90;;;;;;5030680;28;20079;-69
2022/06/17 02:23:27;;;;;;;0.00;0.00;;;16.00;73.90;;;;;;5038229;28;20041;-69
2022/06/17 02:25:56;;;;;;;0.00;0.00;;;15.90;73.80;;;;;;5030733;28;20046;-69
2022/06/17 02:28:23;;;;;;;0.00;0.00;;;15.90;74.00;;;;;;5030448;28;20046;-68
2022/06/17 02:30:50;;;;;;;0.00;0.00;;;15.90;74.00;;;;;;5030738;28;20045;-69
2022/06/17 02:33:18;;;;;;;0.00;0.00;;;15.90;74.00;;;;;;5031002;28;20056;-69
2022/06/17 02:35:53;;;;;;;0.00;0.00;;;15.90;74.10;;;;;;5030302;28;20441;-69
2022/06/17 02:38:22;;;;;;;0.00;0.00;;;15.90;73.90;;;;;;5021438;28;20056;-69
2022/06/17 02:40:52;;;;;;;0.00;0.00;;;15.90;74.10;;;;;;5030603;28;20042;-69
2022/06/17 02:43:21;;;;;;;0.00;0.00;;;15.90;73.90;;;;;;5030528;28;20057;-68
2022/06/17 02:45:52;;;;;;;0.00;0.00;;;15.90;73.80;;;;;;5025590;28;20455;-69
2022/06/17 02:48:22;;;;;;;0.00;0.00;;;15.90;73.90;;;;;;5031127;28;20053;-69
2022/06/17 02:50:48;;;;;;;0.00;0.00;;;15.90;74.30;;;;;;5029919;28;20042;-69
2022/06/17 02:53:15;;;;;;;0.00;0.00;;;16.00;74.60;;;;;;5030655;28;20041;-69
2022/06/17 02:55:42;;;;;;;0.00;0.00;;;16.00;74.30;;;;;;5030114;28;20056;-69
2022/06/17 02:58:22;;;;;;;0.15;0.15;;;16.00;74.40;;;;;;5029561;28;20088;-69
2022/06/17 03:00:50;;;;;;;0.00;0.00;;;16.00;74.30;;;;;;5036738;28;20033;-69
2022/06/17 03:03:17;;;;;;;0.00;0.00;;;16.00;74.70;;;;;;5040582;28;20045;-69
2022/06/17 03:05:44;;;;;;;0.00;0.00;;;16.00;74.50;;;;;;5036597;28;20046;-69
2022/06/17 03:08:26;;;;;;;0.00;0.00;;;16.00;74.40;;;;;;5030004;28;20068;-69
2022/06/17 03:10:54;;;;;;;0.00;0.00;;;16.00;74.70;;;;;;5030924;28;20045;-69
2022/06/17 03:13:28;;;;;;;0.00;0.00;;;16.00;74.40;;;;;;5029707;28;20096;-68
2022/06/17 03:15:58;;;;;;;0.00;0.00;;;16.00;74.50;;;;;;5038232;28;20670;-68
2022/06/17 03:18:24;;;;;;;0.00;0.00;;;16.00;74.50;;;;;;5029603;28;20041;-69
2022/06/17 03:20:51;;;;;;;0.00;0.00;;;16.00;74.50;;;;;;5029985;28;20048;-69
2022/06/17 03:23:20;;;;;;;0.00;0.00;;;16.00;74.70;;;;;;5029821;28;20498;-68
2022/06/17 03:25:58;;;;;;;0.00;0.00;;;16.00;74.80;;;;;;5029353;28;20116;-68
2022/06/17 03:28:39;;;;;;;0.00;0.00;;;16.00;74.70;;;;;;5029893;28;20115;-69
2022/06/17 03:31:14;;;;;;;0.00;0.00;;;16.00;74.60;;;;;;5033883;28;20068;-69
2022/06/17 03:33:51;;;;;;;0.00;0.00;;;16.00;74.50;;;;;;5025739;28;20130;-69
2022/06/17 03:36:31;;;;;;;0.00;0.00;;;16.00;74.50;;;;;;5027913;28;20049;-69
2022/06/17 03:39:00;;;;;;;0.00;0.00;;;16.00;74.40;;;;;;5029174;28;20042;-69
2022/06/17 03:41:48;;;;;;;0.00;0.00;;;16.00;75.10;;;;;;5029460;28;20122;-69
2022/06/17 03:44:26;;;;;;;0.00;0.00;;;16.10;74.90;;;;;;5035161;28;20055;-69
2022/06/17 03:46:56;;;;;;;0.03;0.03;;;16.10;75.40;;;;;;5038476;28;20045;-68
2022/06/17 03:49:27;;;;;;;0.00;0.00;;;16.10;75.50;;;;;;5029242;28;20060;-68
2022/06/17 03:51:58;;;;;;;0.00;0.00;;;16.10;75.60;;;;;;5029093;28;20167;-69
2022/06/17 03:54:24;;;;;;;0.00;0.00;;;16.10;75.60;;;;;;5032464;28;20045;-69
2022/06/17 03:56:52;;;;;;;0.00;0.00;;;16.10;75.60;;;;;;5037128;28;20295;-69
2022/06/17 03:59:28;;;;;;;0.00;0.00;;;16.10;75.50;;;;;;5030533;28;20048;-68
2022/06/17 04:01:58;;;;;;;0.40;0.32;;;16.10;75.50;;;;;;5027944;28;20106;-68
2022/06/17 04:04:28;;;;;;;0.00;0.00;;;16.20;75.30;;;;;;5029257;28;20037;-68
2022/06/17 04:06:56;;;;;;;0.00;0.00;;;16.20;75.50;;;;;;5031120;28;20045;-68
2022/06/17 04:09:25;;;;;;;0.00;0.00;;;16.20;76.00;;;;;;5030585;28;20075;-68
2022/06/17 04:11:57;;;;;;;0.00;0.00;;;16.30;76.00;;;;;;5033941;28;20068;-68
2022/06/17 04:14:48;;;;;;;0.20;0.20;;;16.30;75.80;;;;;;5029542;28;20045;-68
2022/06/17 04:17:16;;;;;;;0.10;0.10;;;16.30;76.10;;;;;;5034528;28;20041;-69
2022/06/17 04:19:45;;;;;;;0.00;0.00;;;16.30;76.20;;;;;;5031224;28;20449;-68
2022/06/17 04:22:19;;;;;;;0.00;0.00;;;16.40;76.00;;;;;;5028519;28;20080;-68
2022/06/17 04:24:50;;;;;;;0.00;0.00;;;16.40;76.10;;;;;;5035175;28;20042;-68
2022/06/17 04:27:17;;;;;;;0.00;0.00;;;16.50;76.30;;;;;;5051594;28;20044;-68
2022/06/17 04:29:46;;;;;;;0.00;0.00;;;16.50;76.20;;;;;;5029986;28;20081;-68
2022/06/17 04:32:44;;;;;;;0.00;0.00;;;16.50;76.30;;;;;;5032174;28;20045;-68
2022/06/17 04:35:12;;;;;;;0.00;0.00;;;16.60;76.30;;;;;;5016460;28;20061;-68
2022/06/17 04:37:40;;;;;;;0.00;0.00;;;16.60;76.40;;;;;;5028594;28;20764;-68
2022/06/17 04:40:18;;;;;;;0.03;0.03;;;16.60;76.50;;;;;;5029480;28;20037;-69
2022/06/17 04:42:44;;;;;;;0.00;0.00;;;16.60;76.20;;;;;;5017369;28;20054;-68
2022/06/17 04:45:19;;;;;;;0.00;0.00;;;16.60;76.30;;;;;;5033740;28;20045;-69
2022/06/17 04:47:45;;;;;;;0.00;0.00;;;16.60;76.60;;;;;;5039499;28;20456;-69
2022/06/17 04:50:15;;;;;;;0.00;0.00;;;16.70;76.80;;;;;;5035232;28;20046;-68
2022/06/17 04:52:44;;;;;;;0.00;0.00;;;16.70;76.60;;;;;;5030023;28;20103;-68
2022/06/17 04:55:17;;;;;;;0.00;0.00;;;16.80;76.60;;;;;;5036063;28;20060;-68
2022/06/17 04:57:43;;;;;;;0.00;0.00;;;16.80;76.40;;;;;;5032408;28;20626;-68
2022/06/17 05:00:24;;;;;;;0.00;0.00;;;16.80;76.30;;;;;;5032109;28;20056;-68
2022/06/17 05:02:49;;;;;;;0.00;0.00;;;16.80;76.70;;;;;;5031231;28;20069;-68
2022/06/17 05:05:35;;;;;;;0.00;0.00;;;16.80;76.70;;;;;;5042202;28;20083;-68
2022/06/17 05:08:06;;;;;;;0.00;0.00;;;16.80;76.90;;;;;;5036472;28;20052;-67
2022/06/17 05:10:39;;;;;;;0.00;0.00;;;16.90;76.80;;;;;;5034119;28;20049;-68
2022/06/17 05:13:12;;;;;;;0.00;0.00;;;16.90;76.70;;;;;;5032190;28;20168;-68
2022/06/17 05:15:38;;;;;;;0.00;0.00;;;17.00;77.00;;;;;;5031089;28;20080;-67
2022/06/17 05:18:04;;;;;;;0.00;0.00;;;17.00;76.90;;;;;;5031715;28;20123;-69
2022/06/17 05:20:29;;;;;;;0.00;0.00;;;17.10;77.30;;;;;;5032796;28;20052;-68
2022/06/17 05:23:00;;;;;;;0.00;0.00;;;17.10;77.20;;;;;;5031594;28;20096;-68
2022/06/17 05:25:32;;;;;;;0.00;0.00;;;17.10;77.40;;;;;;5031481;28;20057;-68
2022/06/17 05:27:57;;;;;;;;;;;17.20;77.50;;;;;;5035659;28;20037;-68
2022/06/17 05:30:23;;;;;;;1.02;0.47;;;17.30;77.60;;;;;;5032563;28;19936;-68
2022/06/17 05:32:54;;;;;;;0.28;0.28;;;17.30;77.50;;;;;;5035520;28;20045;-68
2022/06/17 05:35:22;;;;;;;0.00;0.00;;;17.40;77.40;;;;;;5032003;28;20045;-68
2022/06/17 05:37:48;;;;;;;0.65;0.65;;;17.40;77.40;;;;;;5040546;28;20049;-69
2022/06/17 05:40:14;;;;;;;0.03;0.03;;;17.40;77.00;;;;;;5037681;28;20060;-68
2022/06/17 05:42:42;;;;;;;0.80;0.22;;;17.40;76.60;;;;;;5027490;28;20666;-68
2022/06/17 05:45:13;;;;;;;0.00;0.00;;;17.40;76.60;;;;;;5029724;28;20053;-69
2022/06/17 05:47:39;;;;;;;0.00;0.00;;;17.40;76.70;;;;;;5014392;28;20163;-68
2022/06/17 05:50:05;;;;;;;0.00;0.00;;;17.50;76.50;;;;;;5032162;28;20678;-68
2022/06/17 05:52:31;;;;;;;0.00;0.00;;;17.50;76.40;;;;;;5028870;28;20450;-68
2022/06/17 05:55:04;;;;;;;0.00;0.00;;;17.50;76.30;;;;;;5030948;28;20069;-70
2022/06/17 05:57:29;;;;;;;0.03;0.03;;;17.60;76.20;;;;;;5030451;28;20577;-68
2022/06/17 05:59:55;;;;;;;0.00;0.00;;;17.60;76.20;;;;;;5028736;28;20132;-68
2022/06/17 06:02:21;;;;;;;0.00;0.00;;;17.60;76.00;;;;;;5025273;28;20081;-67
2022/06/17 06:04:46;;;;;;;0.00;0.00;;;17.70;76.00;;;;;;5020800;28;20124;-67
2022/06/17 06:07:12;;;;;;;0.00;0.00;;;17.80;75.90;;;;;;5029533;28;20621;-68
2022/06/17 06:09:38;;;;;;;0.00;0.00;;;17.90;75.80;;;;;;5029124;28;20046;-67
2022/06/17 06:12:04;;;;;;;0.00;0.00;;;18.00;75.70;;;;;;5028216;28;20099;-68
2022/06/17 06:14:30;;;;;;;0.00;0.00;;;18.00;75.60;;;;;;5029222;28;20046;-68
2022/06/17 06:16:55;;;;;;;0.00;0.00;;;18.00;75.30;;;;;;5030246;28;20056;-69
2022/06/17 06:19:21;;;;;;;0.00;0.00;;;18.10;75.20;;;;;;5029462;28;20498;-69
2022/06/17 06:21:47;;;;;;;0.00;0.00;;;18.10;75.20;;;;;;5030060;28;20073;-69
2022/06/17 06:24:12;;;;;;;0.00;0.00;;;18.20;75.00;;;;;;5030021;28;20541;-68
2022/06/17 06:26:40;;;;;;;0.82;0.80;;;18.20;74.60;;;;;;5030382;28;20045;-68
2022/06/17 06:29:06;;;;;;;0.00;0.00;;;18.20;74.50;;;;;;5031315;28;20052;-68
2022/06/17 06:31:34;;;;;;;0.00;0.00;;;18.30;74.50;;;;;;5030441;28;20049;-68
2022/06/17 06:34:00;;;;;;;0.00;0.00;;;18.30;74.50;;;;;;5030561;28;20049;-68
2022/06/17 06:36:25;;;;;;;0.00;0.00;;;18.40;74.30;;;;;;5030818;28;20515;-68
2022/06/17 06:38:51;;;;;;;0.00;0.00;;;18.40;74.20;;;;;;5030901;28;20037;-68
2022/06/17 06:41:20;;;;;;;0.00;0.00;;;18.50;74.20;;;;;;5031094;28;20053;-68
2022/06/17 06:43:46;;;;;;;7.53;1.05;;;18.50;74.10;;;;;;5030635;28;20053;-68
2022/06/17 06:46:14;;;;;;;0.00;0.00;;;18.60;74.10;;;;;;5030987;28;20037;-68
2022/06/17 06:48:39;;;;;;;0.00;0.00;;;18.60;74.00;;;;;;5030558;28;20048;-68
2022/06/17 06:51:05;;;;;;;0.10;0.10;;;18.60;74.00;;;;;;5030908;28;20128;-68
2022/06/17 06:53:31;;;;;;;0.00;0.00;;;18.70;74.00;;;;;;5029591;28;20482;-68
2022/06/17 06:55:56;;;;;;;0.00;0.00;;;18.80;74.10;;;;;;5030493;28;20052;-68
2022/06/17 06:58:24;;;;;;;0.00;0.00;;;18.80;74.00;;;;;;5029677;28;20041;-68
2022/06/17 07:00:56;;;;;;;0.00;0.00;;;18.90;73.40;;;;;;5030809;28;20083;-67
2022/06/17 07:03:23;;;;;;;0.10;0.10;;;19.00;73.20;;;;;;5030160;28;20037;-68
2022/06/17 07:06:01;;;;;;;0.00;0.00;;;19.00;72.40;;;;;;5030237;28;20091;-68
2022/06/17 07:08:30;;;;;;;0.00;0.00;;;19.10;72.00;;;;;;5029964;28;20053;-68
2022/06/17 07:10:59;;;;;;;11.98;0.80;;;19.20;71.70;;;;;;5028817;28;20041;-68
2022/06/17 07:13:28;;;;;;;0.17;0.17;;;19.30;71.60;;;;;;5030473;28;20174;-68
2022/06/17 07:15:55;;;;;;;0.00;0.00;;;19.30;71.70;;;;;;5030600;28;20095;-68
2022/06/17 07:18:23;;;;;;;0.00;0.00;;;19.40;71.70;;;;;;5045233;28;20056;-68
2022/06/17 07:20:52;;;;;;;0.00;0.00;;;19.50;71.20;;;;;;5029083;28;20049;-68
2022/06/17 07:23:25;;;;;;;0.00;0.00;;;19.50;70.60;;;;;;5029202;28;20046;-68
2022/06/17 07:25:52;;;;;;;0.00;0.00;;;19.50;70.70;;;;;;5029743;28;20387;-68
2022/06/17 07:28:22;;;;;;;0.00;0.00;;;19.60;71.10;;;;;;5044592;28;20045;-67
2022/06/17 07:30:50;;;;;;;0.00;0.00;;;19.70;70.40;;;;;;5029623;28;20045;-68
2022/06/17 07:33:17;;;;;;;0.00;0.00;;;19.70;70.50;;;;;;5030162;28;20628;-67
2022/06/17 07:35:45;;;;;;;0.00;0.00;;;19.80;69.90;;;;;;5029547;28;20041;-67
2022/06/17 07:41:05;;;;;;;0.00;0.00;;;19.90;69.40;;;;;;5029784;28;20046;-67
2022/06/17 07:43:30;;;;;;;0.00;0.00;;;20.00;69.50;;;;;;5030103;28;20075;-68
2022/06/17 07:45:56;;;;;;;0.00;0.00;;;20.00;68.90;;;;;;5029776;28;20045;-68
2022/06/17 07:48:22;;;;;;;0.00;0.00;;;20.00;69.00;;;;;;5028567;28;20052;-67
2022/06/17 07:50:48;;;;;;;0.00;0.00;;;20.10;68.40;;;;;;5028884;28;20076;-68
2022/06/17 07:53:14;;;;;;;0.00;0.00;;;20.10;68.60;;;;;;5029429;28;20077;-68
2022/06/17 07:55:42;;;;;;;0.00;0.00;;;20.10;68.50;;;;;;5029371;28;20049;-67
2022/06/17 07:58:09;;;;;;;0.00;0.00;;;20.10;67.50;;;;;;5029650;28;20457;-68
2022/06/17 08:00:38;;;;;;;0.20;0.20;;;20.10;67.50;;;;;;5028748;28;20076;-68
2022/06/17 08:03:05;;;;;;;0.10;0.10;;;20.20;67.50;;;;;;5028410;28;20936;-68
2022/06/17 08:05:31;;;;;;;0.00;0.00;;;20.20;67.60;;;;;;5029634;28;20742;-68
2022/06/17 08:07:58;;;;;;;0.10;0.10;;;20.40;67.90;;;;;;5027811;28;20057;-68
2022/06/17 08:10:27;;;;;;;0.00;0.00;;;20.60;67.70;;;;;;5029684;28;20049;-68
2022/06/17 08:12:53;;;;;;;1.15;0.77;;;20.70;67.80;;;;;;5029317;28;20049;-67
2022/06/17 08:15:20;;;;;;;0.98;0.57;;;20.80;67.10;;;;;;5028856;28;20049;-67
2022/06/17 08:17:45;;;;;;;0.00;0.00;;;21.00;66.00;;;;;;5028552;28;20484;-67
2022/06/17 08:20:25;;;;;;;0.00;0.00;;;20.90;64.80;;;;;;5028896;28;20117;-67
2022/06/17 08:22:51;;;;;;;0.10;0.10;;;21.00;65.10;;;;;;5025698;28;20045;-67
2022/06/17 08:25:17;;;;;;;0.00;0.00;;;21.10;66.20;;;;;;5028085;28;20929;-69
2022/06/17 08:27:45;;;;;;;3.75;0.38;;;21.10;65.80;;;;;;5027799;28;20042;-69
2022/06/17 08:30:12;;;;;;;0.00;0.00;;;21.10;65.20;;;;;;5027054;28;20077;-68
2022/06/17 08:32:48;;;;;;;0.00;0.00;;;21.20;66.10;;;;;;5027525;28;20045;-68
2022/06/17 08:35:20;;;;;;;0.10;0.10;;;21.20;66.10;;;;;;5027130;28;20045;-69
2022/06/17 08:37:47;;;;;;;0.00;0.00;;;21.30;65.20;;;;;;5027561;28;20103;-69
2022/06/17 08:40:35;;;;;;;0.00;0.00;;;21.30;65.20;;;;;;5027067;28;20068;-69
2022/06/17 08:43:31;;;;;;;0.00;0.00;;;21.40;65.10;;;;;;5026667;28;20044;-68
2022/06/17 08:46:11;;;;;;;0.00;0.00;;;21.50;65.10;;;;;;5026239;28;20084;-69
2022/06/17 08:49:03;;;;;;;0.00;0.00;;;21.50;64.40;;;;;;5027692;28;20042;-69
2022/06/17 08:51:32;;;;;;;0.00;0.00;;;21.50;64.70;;;;;;5027642;28;20045;-69
2022/06/17 08:54:21;;;;;;;0.00;0.00;;;21.60;63.70;;;;;;5027753;28;20095;-69
2022/06/17 08:56:58;;;;;;;0.00;0.00;;;21.70;63.80;;;;;;5027948;28;20045;-69
2022/06/17 08:59:54;;;;;;;0.00;0.00;;;21.70;61.80;;;;;;5027486;28;20044;-70
2022/06/17 09:02:40;;;;;;;0.00;0.00;;;21.70;61.80;;;;;;5027324;28;20041;-70
2022/06/17 09:05:29;;;;;;;0.00;0.00;;;21.80;62.20;;;;;;5027754;28;20120;-70
2022/06/17 09:08:14;;;;;;;0.10;0.10;;;21.80;63.20;;;;;;5026628;28;20042;-69
2022/06/17 09:11:06;;;;;;;0.00;0.00;;;21.90;63.30;;;;;;5027092;28;20049;-67
2022/06/17 09:13:47;;;;;;;0.00;0.00;;;22.00;62.60;;;;;;5027114;28;20422;-68
2022/06/17 09:16:28;;;;;;;0.00;0.00;;;22.00;63.10;;;;;;5026356;28;20077;-67
2022/06/17 09:19:00;;;;;;;0.00;0.00;;;22.00;63.20;;;;;;5028492;28;20132;-67
2022/06/17 09:21:49;;;;;;;0.00;0.00;;;22.00;63.50;;;;;;5039648;28;20491;-67
2022/06/17 09:24:22;;;;;;;0.17;0.13;;;22.10;63.80;;;;;;5027349;28;20053;-67
2022/06/17 09:26:58;;;;;;;0.00;0.00;;;22.20;63.40;;;;;;5040276;28;20041;-68
2022/06/17 09:29:51;;;;;;;0.38;0.32;;;22.30;63.00;;;;;;5028089;28;20509;-68
2022/06/17 09:32:58;;;;;;;0.00;0.00;;;22.40;62.80;;;;;;5026596;28;20112;-68
2022/06/17 09:35:39;;;;;;;0.00;0.00;;;22.50;62.70;;;;;;5029969;28;20049;-68
2022/06/17 09:38:15;;;;;;;0.00;0.00;;;22.50;60.70;;;;;;5031288;28;20048;-68
2022/06/17 09:40:52;;;;;;;0.00;0.00;;;22.50;59.10;;;;;;5029589;28;20045;-68
2022/06/17 09:43:34;;;;;;;0.00;0.00;;;22.50;60.00;;;;;;5029784;28;20114;-68
2022/06/17 09:46:17;;;;;;;0.00;0.00;;;22.50;59.00;;;;;;5029872;28;20034;-68
2022/06/17 09:49:00;;;;;;;0.20;0.15;;;22.60;59.30;;;;;;5029293;28;20045;-68
2022/06/17 09:51:37;;;;;;;0.00;0.00;;;22.80;59.80;;;;;;5030874;28;20041;-68
2022/06/17 09:54:12;;;;;;;0.00;0.00;;;22.90;59.40;;;;;;5029838;28;20053;-68
2022/06/17 09:57:03;;;;;;;0.00;0.00;;;23.00;59.60;;;;;;5030641;28;20033;-67
2022/06/17 09:59:37;;;;;;;0.00;0.00;;;23.20;58.90;;;;;;5030716;28;20065;-67
2022/06/17 10:02:22;;;;;;;0.20;0.20;;;23.30;57.70;;;;;;5031103;28;20056;-68
2022/06/17 10:04:50;;;;;;;0.00;0.00;;;23.50;58.90;;;;;;5029079;28;20893;-68
2022/06/17 10:07:27;;;;;;;0.17;0.17;;;23.60;57.50;;;;;;5030556;28;20421;-68
2022/06/17 10:09:59;;;;;;;0.00;0.00;;;23.70;57.00;;;;;;5030048;28;20056;-68
2022/06/17 10:12:29;;;;;;;0.00;0.00;;;23.80;56.10;;;;;;5030219;28;20449;-68
2022/06/17 10:15:16;;;;;;;0.28;0.22;;;23.80;55.10;;;;;;5030380;28;20469;-68
2022/06/17 10:20:56;;;;;;;0.00;0.00;;;23.80;56.20;;;;;;5028791;28;20874;-68
2022/06/17 10:23:45;;;;;;;0.10;0.10;;;23.80;57.10;;;;;;5029537;28;20159;-68
2022/06/17 10:26:32;;;;;;;0.00;0.00;;;23.90;56.10;;;;;;5028060;28;20041;-68
2022/06/17 10:29:20;;;;;;;0.00;0.00;;;23.80;54.60;;;;;;5029369;28;20600;-68
2022/06/17 10:31:46;;;;;;;0.00;0.00;;;23.80;54.00;;;;;;5028486;28;20076;-68
2022/06/17 10:34:14;;;;;;;0.10;0.10;;;23.90;54.90;;;;;;5030272;28;20087;-68
2022/06/17 10:36:43;;;;;;;0.00;0.00;;;23.90;54.90;;;;;;5027775;28;20037;-68
2022/06/17 10:39:12;;;;;;;0.17;0.17;;;23.90;55.10;;;;;;5029341;28;20103;-69
2022/06/17 10:41:38;;;;;;;0.10;0.10;;;24.00;54.90;;;;;;5029425;28;20049;-68
2022/06/17 10:44:08;;;;;;;0.20;0.20;;;24.10;55.00;;;;;;5032073;28;20072;-68
2022/06/17 10:46:39;;;;;;;0.00;0.00;;;24.20;54.20;;;;;;5025905;28;20093;-68
2022/06/17 10:49:33;;;;;;;0.50;0.50;;;24.40;55.80;;;;;;5028310;28;20076;-68
2022/06/17 10:52:01;;;;;;;0.00;0.00;;;24.40;54.70;;;;;;5030351;28;20045;-69
2022/06/17 10:54:36;;;;;;;0.00;0.00;;;24.40;53.10;;;;;;5029689;28;20045;-69
2022/06/17 10:57:06;;;;;;;0.00;0.00;;;24.30;54.20;;;;;;5032569;28;20052;-69
2022/06/17 10:59:41;;;;;;;0.10;0.10;;;24.40;53.90;;;;;;5030852;28;20048;-69
2022/06/17 11:02:23;;;;;;;0.00;0.00;;;24.50;55.30;;;;;;5029375;28;20045;-69
2022/06/17 11:04:55;;;;;;;0.00;0.00;;;24.70;54.00;;;;;;5028408;28;20049;-68
2022/06/17 11:07:44;;;;;;;0.10;0.10;;;24.80;54.20;;;;;;5033187;28;20549;-69
2022/06/17 11:10:12;;;;;;;0.00;0.00;;;24.80;52.40;;;;;;5034933;28;20406;-69
2022/06/17 11:12:42;;;;;;;0.00;0.00;;;24.90;50.70;;;;;;5030097;28;20061;-69
2022/06/17 11:15:33;;;;;;;0.00;0.00;;;24.90;52.60;;;;;;5029768;28;20061;-69
2022/06/17 11:18:05;;;;;;;0.00;0.00;;;25.00;53.00;;;;;;5030056;28;20100;-69
2022/06/17 11:20:35;;;;;;;0.10;0.10;;;24.90;52.00;;;;;;5029965;28;20820;-68
2022/06/17 11:23:25;;;;;;;0.00;0.00;;;24.90;51.30;;;;;;5028944;28;20076;-69
2022/06/17 11:26:14;;;;;;;0.15;0.15;;;24.80;50.90;;;;;;5029892;28;20604;-69
2022/06/17 11:28:43;;;;;;;0.00;0.00;;;24.90;50.90;;;;;;5029729;28;20490;-68
2022/06/17 11:31:28;;;;;;;0.00;0.00;;;25.00;49.90;;;;;;5030034;28;20469;-69
2022/06/17 11:33:54;;;;;;;0.10;0.10;;;25.10;51.00;;;;;;5030100;28;20053;-69
2022/06/17 11:36:34;;;;;;;0.40;0.40;;;25.20;50.80;;;;;;5037638;28;20817;-68
2022/06/17 11:39:28;;;;;;;1.88;0.95;;;25.30;50.00;;;;;;5049574;28;20044;-69
2022/06/17 11:41:55;;;;;;;0.00;0.00;;;25.40;49.70;;;;;;5038585;28;20049;-69
2022/06/17 11:44:24;;;;;;;0.00;0.00;;;25.50;50.40;;;;;;5029293;28;20052;-69
2022/06/17 11:46:53;;;;;;;0.00;0.00;;;25.50;48.30;;;;;;5032125;28;20390;-69
2022/06/17 11:49:20;;;;;;;0.20;0.20;;;25.60;49.10;;;;;;5029502;28;20053;-69
2022/06/17 11:52:01;;;;;;;0.30;0.30;;;25.60;47.50;;;;;;5037556;28;20053;-70
2022/06/17 11:54:31;;;;;;;0.00;0.00;;;25.80;47.40;;;;;;5028038;28;20046;-69
2022/06/17 11:56:57;;;;;;;0.00;0.00;;;25.80;46.40;;;;;;5027897;28;20077;-69
2022/06/17 11:59:30;;;;;;;0.57;0.28;;;26.00;48.00;;;;;;5029334;28;20063;-69
2022/06/17 12:02:03;;;;;;;0.20;0.20;;;26.00;45.00;;;;;;5028997;28;20152;-69
2022/06/17 12:04:41;;;;;;;0.47;0.47;;;26.10;45.80;;;;;;5028932;28;20049;-70
2022/06/17 12:07:35;;;;;;;0.00;0.00;;;26.20;46.10;;;;;;5028582;28;20045;-70
2022/06/17 12:10:17;;;;;;;0.00;0.00;;;26.30;46.00;;;;;;5028707;28;20524;-70
2022/06/17 12:12:43;;;;;;;0.08;0.08;;;26.40;43.80;;;;;;5023768;28;20387;-70
2022/06/17 12:15:30;;;;;;;0.22;0.20;;;26.50;45.70;;;;;;5027496;28;20057;-70
2022/06/17 12:17:58;;;;;;;0.00;0.00;;;26.50;43.80;;;;;;5030328;28;20550;-70
2022/06/17 12:20:33;;;;;;;0.00;0.00;;;26.60;45.10;;;;;;5028773;28;20044;-70
2022/06/17 12:23:06;;;;;;;0.00;0.00;;;26.60;44.00;;;;;;5028793;28;21230;-69
2022/06/17 12:25:46;;;;;;;0.30;0.30;;;26.70;43.40;;;;;;5028651;28;21104;-69
2022/06/17 12:28:18;;;;;;;0.00;0.00;;;26.80;45.60;;;;;;5015127;28;20487;-70
2022/06/17 12:30:57;;;;;;;0.20;0.20;;;26.70;43.50;;;;;;5029253;28;20515;-69
2022/06/17 12:33:33;;;;;;;0.00;0.00;;;26.70;44.50;;;;;;5030153;28;20045;-69
2022/06/17 12:36:16;;;;;;;0.30;0.30;;;26.80;45.30;;;;;;5030319;28;20033;-69
2022/06/17 12:38:47;;;;;;;0.00;0.00;;;26.80;45.00;;;;;;5023986;28;20495;-69
2022/06/17 12:41:41;;;;;;;0.10;0.10;;;26.80;44.90;;;;;;5028676;28;20486;-69
2022/06/17 12:44:12;;;;;;;0.15;0.13;;;26.60;43.70;;;;;;5009027;28;20708;-69
2022/06/17 12:46:49;;;;;;;;;;;26.60;44.40;;;;;;5012408;28;20506;-69
2022/06/17 12:55:20;;;;;;;0.00;0.00;;;26.50;46.30;;;;;;5039637;28;20045;-69
2022/06/17 12:58:07;;;;;;;0.00;0.00;;;26.50;46.30;;;;;;5027942;28;20107;-69
2022/06/17 13:00:44;;;;;;;0.00;0.00;;;26.50;46.20;;;;;;5032394;28;20534;-70
2022/06/17 13:03:31;;;;;;;0.08;0.08;;;26.50;46.00;;;;;;5019180;28;20053;-69
2022/06/17 13:06:09;;;;;;;0.00;0.00;;;26.50;46.10;;;;;;5027725;28;20906;-68
2022/06/17 13:09:05;;;;;;;0.25;0.25;;;26.60;47.30;;;;;;5022218;28;20045;-67
2022/06/17 13:11:52;;;;;;;0.00;0.00;;;26.60;47.00;;;;;;5013190;28;20061;-68
2022/06/17 13:14:45;;;;;;;0.00;0.00;;;26.60;47.20;;;;;;5031427;28;20665;-67
2022/06/17 13:17:28;;;;;;;0.00;0.00;;;26.70;46.20;;;;;;5027974;28;20152;-68
2022/06/17 13:20:22;;;;;;;0.10;0.10;;;26.60;45.90;;;;;;5029967;28;20061;-68
2022/06/17 13:23:01;;;;;;;0.08;0.08;;;26.50;45.30;;;;;;5028681;28;20053;-68
2022/06/17 13:25:36;;;;;;;0.03;0.03;;;26.40;45.50;;;;;;5018739;28;20049;-68
2022/06/17 13:28:12;;;;;;;1.38;0.68;;;26.50;45.90;;;;;;5028781;28;20115;-68
2022/06/17 13:30:56;;;;;;;0.00;0.00;;;26.60;46.50;;;;;;5030887;28;20486;-68